createdAt,value
2022-10-05T00:00:49.875Z,11.40
2022-10-05T00:03:39.135Z,11.00
2022-10-05T00:06:10.241Z,11.50
2022-10-05T00:08:38.461Z,10.40
2022-10-05T00:11:13.506Z,12.80
2022-10-05T00:13:41.698Z,9.00
2022-10-05T00:16:15.147Z,11.20
2022-10-05T00:18:47.178Z,8.40
2022-10-05T00:21:18.433Z,9.30
2022-10-05T00:23:46.640Z,9.70
2022-10-05T00:26:21.689Z,7.80
2022-10-05T00:28:50.403Z,8.60
2022-10-05T00:31:30.827Z,7.10
2022-10-05T00:33:59.228Z,9.40
2022-10-05T00:36:27.301Z,7.90
2022-10-05T00:38:55.537Z,8.70
2022-10-05T00:41:23.415Z,10.90
2022-10-05T00:44:01.550Z,13.20
2022-10-05T00:46:29.408Z,11.80
2022-10-05T00:49:34.965Z,9.90
2022-10-05T00:52:20.502Z,9.80
2022-10-05T00:55:08.052Z,10.90
2022-10-05T00:57:57.334Z,10.80
2022-10-05T01:00:27.153Z,9.20
2022-10-05T01:03:07.215Z,8.20
2022-10-05T01:05:44.593Z,9.10
2022-10-05T01:08:46.258Z,6.50
2022-10-05T01:11:20.428Z,10.10
2022-10-05T01:14:03.894Z,9.90
2022-10-05T01:16:41.435Z,7.40
2022-10-05T01:19:40.431Z,8.60
2022-10-05T01:22:59.650Z,8.50
2022-10-05T01:25:44.717Z,6.20
2022-10-05T01:28:21.639Z,7.80
2022-10-05T01:31:01.851Z,9.00
2022-10-05T01:33:57.789Z,5.90
2022-10-05T01:36:43.967Z,8.10
2022-10-05T01:39:24.024Z,10.00
2022-10-05T01:42:10.293Z,10.50
2022-10-05T01:44:42.451Z,7.70
2022-10-05T01:47:20.421Z,10.00
2022-10-05T01:50:04.839Z,9.20
2022-10-05T01:53:12.046Z,7.80
2022-10-05T01:56:11.433Z,9.50
2022-10-05T01:59:03.212Z,8.90
2022-10-05T02:01:54.995Z,9.10
2022-10-05T02:04:59.897Z,9.60
2022-10-05T02:07:23.547Z,8.80
2022-10-05T02:09:59.714Z,7.70
2022-10-05T02:12:32.912Z,7.70
2022-10-05T02:15:15.926Z,9.10
2022-10-05T02:17:51.239Z,9.60
2022-10-05T02:20:25.965Z,8.60
2022-10-05T02:22:58.947Z,9.00
2022-10-05T02:25:35.075Z,10.10
2022-10-05T02:28:12.609Z,8.40
2022-10-05T02:30:55.760Z,8.60
2022-10-05T02:33:24.369Z,8.00
2022-10-05T02:35:54.603Z,8.80
2022-10-05T02:38:41.403Z,8.30
2022-10-05T02:41:24.625Z,8.40
2022-10-05T02:44:20.137Z,8.10
2022-10-05T02:46:58.372Z,7.90
2022-10-05T02:49:54.477Z,9.30
2022-10-05T02:52:29.830Z,7.30
2022-10-05T02:55:15.603Z,7.50
2022-10-05T02:57:57.309Z,8.50
2022-10-05T03:00:33.655Z,7.40
2022-10-05T03:03:11.557Z,9.30
2022-10-05T03:06:00.720Z,9.30
2022-10-05T03:08:51.616Z,11.20
2022-10-05T03:11:45.714Z,10.90
2022-10-05T03:14:20.730Z,11.20
2022-10-05T03:17:20.496Z,9.70
2022-10-05T03:20:28.272Z,9.60
2022-10-05T03:23:02.720Z,9.30
2022-10-05T03:25:44.059Z,12.30
2022-10-05T03:28:56.816Z,8.50
2022-10-05T03:31:43.725Z,9.30
2022-10-05T03:34:14.729Z,13.50
2022-10-05T03:36:51.512Z,8.40
2022-10-05T03:39:31.149Z,12.20
2022-10-05T03:42:24.203Z,7.00
2022-10-05T03:45:03.449Z,6.80
2022-10-05T03:47:49.423Z,8.80
2022-10-05T03:50:56.406Z,10.90
2022-10-05T03:53:35.456Z,9.70
2022-10-05T03:56:03.667Z,8.60
2022-10-05T03:58:41.329Z,8.80
2022-10-05T04:01:15.963Z,11.00
2022-10-05T04:03:48.405Z,10.50
2022-10-05T04:06:18.960Z,9.60
2022-10-05T04:09:06.044Z,8.80
2022-10-05T04:11:40.715Z,10.00
2022-10-05T04:14:30.220Z,10.80
2022-10-05T04:17:03.228Z,10.80
2022-10-05T04:19:46.939Z,11.90
2022-10-05T04:22:20.717Z,11.60
2022-10-05T04:24:58.781Z,11.40
2022-10-05T04:27:51.219Z,13.80
2022-10-05T04:30:20.621Z,12.10
2022-10-05T04:33:00.874Z,13.30
2022-10-05T04:35:42.565Z,14.20
2022-10-05T04:38:47.851Z,12.00
2022-10-05T04:41:41.361Z,16.00
2022-10-05T04:44:48.434Z,16.10
2022-10-05T04:48:02.510Z,14.40
2022-10-05T04:51:06.520Z,14.20
2022-10-05T04:53:38.395Z,13.00
2022-10-05T04:56:11.606Z,15.30
2022-10-05T04:58:43.179Z,12.30
2022-10-05T05:01:32.493Z,12.80
2022-10-05T05:04:24.925Z,12.30
2022-10-05T05:07:22.496Z,16.90
2022-10-05T05:10:19.854Z,12.90
2022-10-05T05:13:21.986Z,14.50
2022-10-05T05:16:10.777Z,14.50
2022-10-05T05:18:58.407Z,14.50
2022-10-05T05:21:54.398Z,16.70
2022-10-05T05:24:47.043Z,12.10
2022-10-05T05:27:27.349Z,13.90
2022-10-05T05:30:13.641Z,12.70
2022-10-05T05:33:03.312Z,16.60
2022-10-05T05:36:05.311Z,11.70
2022-10-05T05:39:01.106Z,16.20
2022-10-05T05:41:39.493Z,14.30
2022-10-05T05:44:24.565Z,16.40
2022-10-05T05:47:04.758Z,17.70
2022-10-05T05:50:10.491Z,19.00
2022-10-05T05:52:49.625Z,13.30
2022-10-05T05:55:30.392Z,15.00
2022-10-05T05:58:21.066Z,13.10
2022-10-05T06:01:04.531Z,15.70
2022-10-05T06:04:08.941Z,13.40
2022-10-05T06:06:44.799Z,15.60
2022-10-05T06:09:22.695Z,11.80
2022-10-05T06:12:24.764Z,9.60
2022-10-05T06:15:00.783Z,14.10
2022-10-05T06:17:37.899Z,12.80
2022-10-05T06:20:17.134Z,10.70
2022-10-05T06:22:47.351Z,10.00
2022-10-05T06:25:56.925Z,13.30
2022-10-05T06:28:27.408Z,10.50
2022-10-05T06:31:05.324Z,12.50
2022-10-05T06:33:53.930Z,9.60
2022-10-05T06:36:28.588Z,10.00
2022-10-05T06:38:59.130Z,13.10
2022-10-05T06:41:48.531Z,10.40
2022-10-05T06:44:55.278Z,12.40
2022-10-05T06:47:49.127Z,8.80
2022-10-05T06:50:36.579Z,11.90
2022-10-05T06:53:39.365Z,11.60
2022-10-05T06:56:12.963Z,10.00
2022-10-05T06:58:50.942Z,9.80
2022-10-05T07:01:37.455Z,8.40
2022-10-05T07:04:26.020Z,9.90
2022-10-05T07:07:03.105Z,8.60
2022-10-05T07:09:49.394Z,10.00
2022-10-05T07:12:41.667Z,9.10
2022-10-05T07:15:19.687Z,13.90
2022-10-05T07:18:09.121Z,9.70
2022-10-05T07:20:53.564Z,11.20
2022-10-05T07:23:52.781Z,12.00
2022-10-05T07:26:21.041Z,10.10
2022-10-05T07:29:08.585Z,15.40
2022-10-05T07:31:53.554Z,10.00
2022-10-05T07:34:36.365Z,9.60
2022-10-05T07:37:44.511Z,7.70
2022-10-05T07:40:19.807Z,9.20
2022-10-05T07:43:14.012Z,10.80
2022-10-05T07:45:45.459Z,9.50
2022-10-05T07:48:35.825Z,12.50
2022-10-05T07:51:18.003Z,8.50
2022-10-05T07:54:06.603Z,10.60
2022-10-05T07:56:43.944Z,7.90
2022-10-05T07:59:39.074Z,8.40
2022-10-05T08:02:23.085Z,8.40
2022-10-05T08:04:59.911Z,10.70
2022-10-05T08:07:32.973Z,10.90
2022-10-05T08:10:22.972Z,8.90
2022-10-05T08:12:54.923Z,10.90
2022-10-05T08:15:31.211Z,7.80
2022-10-05T08:18:12.242Z,8.50
2022-10-05T08:20:57.124Z,8.00
2022-10-05T08:23:32.116Z,8.80
2022-10-05T08:26:12.007Z,8.90
2022-10-05T08:28:43.995Z,10.60
2022-10-05T08:31:25.581Z,8.70
2022-10-05T08:34:26.094Z,9.10
2022-10-05T08:37:19.243Z,11.10
2022-10-05T08:40:11.932Z,9.90
2022-10-05T08:42:55.219Z,9.70
2022-10-05T08:45:32.128Z,9.60
2022-10-05T08:48:18.288Z,9.40
2022-10-05T08:51:23.738Z,9.80
2022-10-05T08:54:20.583Z,11.60
2022-10-05T08:57:16.505Z,9.20
2022-10-05T08:59:47.149Z,9.60
2022-10-05T09:02:45.071Z,10.40
2022-10-05T09:05:29.908Z,10.30
2022-10-05T09:08:09.716Z,8.50
2022-10-05T09:10:37.991Z,9.30
2022-10-05T09:13:18.660Z,12.10
2022-10-05T09:16:28.115Z,9.90
2022-10-05T09:19:22.997Z,10.60
2022-10-05T09:22:12.001Z,9.30
2022-10-05T09:24:57.306Z,8.50
2022-10-05T09:27:36.617Z,7.50
2022-10-05T09:30:35.824Z,9.50
2022-10-05T09:33:31.787Z,11.90
2022-10-05T09:36:18.393Z,9.70
2022-10-05T09:39:23.536Z,8.20
2022-10-05T09:42:21.195Z,8.00
2022-10-05T09:45:23.675Z,7.60
2022-10-05T09:48:26.036Z,7.10
2022-10-05T09:51:06.982Z,7.50
2022-10-05T09:53:53.626Z,9.10
2022-10-05T09:56:43.830Z,7.50
2022-10-05T09:59:47.110Z,6.80
2022-10-05T10:02:16.121Z,9.20
2022-10-05T10:05:20.339Z,8.70
2022-10-05T10:07:55.952Z,9.50
2022-10-05T10:11:05.392Z,8.60
2022-10-05T10:14:06.123Z,8.20
2022-10-05T10:16:58.482Z,6.90
2022-10-05T10:19:49.161Z,7.10
2022-10-05T10:22:25.966Z,8.50
2022-10-05T10:25:12.424Z,8.20
2022-10-05T10:27:54.391Z,8.00
2022-10-05T10:30:46.911Z,9.60
2022-10-05T10:33:15.789Z,7.60
2022-10-05T10:36:33.226Z,7.20
2022-10-05T10:39:12.416Z,7.10
2022-10-05T10:42:04.134Z,7.30
2022-10-05T10:44:37.780Z,6.10
2022-10-05T10:47:40.218Z,7.70
2022-10-05T10:50:20.221Z,8.10
2022-10-05T10:53:25.873Z,6.50
2022-10-05T10:56:28.445Z,9.70
2022-10-05T10:59:08.180Z,9.20
2022-10-05T11:01:40.179Z,7.10
2022-10-05T11:04:39.648Z,5.80
2022-10-05T11:07:16.521Z,6.90
2022-10-05T11:10:21.663Z,8.50
2022-10-05T11:13:17.691Z,8.10
2022-10-05T11:16:12.513Z,6.30
2022-10-05T11:19:10.251Z,6.90
2022-10-05T11:21:45.400Z,7.10
2022-10-05T11:24:42.614Z,5.80
2022-10-05T11:27:34.063Z,5.10
2022-10-05T11:30:16.924Z,7.60
2022-10-05T11:33:35.323Z,5.10
2022-10-05T11:36:03.246Z,5.90
2022-10-05T11:39:02.362Z,6.70
2022-10-05T11:42:07.222Z,6.70
2022-10-05T11:45:19.312Z,6.50
2022-10-05T11:48:16.248Z,5.40
2022-10-05T11:51:08.945Z,8.70
2022-10-05T11:53:59.108Z,6.90
2022-10-05T11:56:39.786Z,6.50
2022-10-05T11:59:26.754Z,7.00
2022-10-05T12:02:04.443Z,4.90
2022-10-05T12:04:53.468Z,6.50
2022-10-05T12:07:41.032Z,6.30
2022-10-05T12:10:40.275Z,7.20
2022-10-05T12:13:19.612Z,4.90
2022-10-05T12:15:57.941Z,5.50
2022-10-05T12:18:31.585Z,6.40
2022-10-05T12:21:15.617Z,4.70
2022-10-05T12:23:59.100Z,9.90
2022-10-05T12:26:47.514Z,7.20
2022-10-05T12:29:32.513Z,6.40
2022-10-05T12:32:19.222Z,6.60
2022-10-05T12:34:50.125Z,6.00
2022-10-05T12:37:46.692Z,5.40
2022-10-05T12:40:17.740Z,5.00
2022-10-05T12:43:32.190Z,4.90
2022-10-05T12:46:06.174Z,4.50
2022-10-05T12:48:47.324Z,7.00
2022-10-05T12:51:40.752Z,4.80
2022-10-05T12:54:36.030Z,4.50
2022-10-05T12:57:22.966Z,5.30
2022-10-05T12:59:59.714Z,6.00
2022-10-05T13:02:33.169Z,7.20
2022-10-05T13:05:10.126Z,6.40
2022-10-05T13:08:13.030Z,5.60
2022-10-05T13:10:45.934Z,4.60
2022-10-05T13:13:25.527Z,4.90
2022-10-05T13:15:58.046Z,11.00
2022-10-05T13:18:39.253Z,8.60
2022-10-05T13:21:16.869Z,7.40
2022-10-05T13:23:57.201Z,6.40
2022-10-05T13:26:35.398Z,5.30
2022-10-05T13:29:24.243Z,5.40
2022-10-05T13:32:13.186Z,5.60
2022-10-05T13:35:02.729Z,5.90
2022-10-05T13:37:52.096Z,5.60
2022-10-05T13:40:45.461Z,5.60
2022-10-05T13:43:48.142Z,6.50
2022-10-05T13:46:51.184Z,6.80
2022-10-05T13:49:29.747Z,6.80
2022-10-05T13:52:25.230Z,5.60
2022-10-05T13:55:05.832Z,7.90
2022-10-05T13:57:45.299Z,4.80
2022-10-05T14:00:26.355Z,6.60
2022-10-05T14:03:01.026Z,4.30
2022-10-05T14:05:31.304Z,7.10
2022-10-05T14:08:02.306Z,5.90
2022-10-05T14:10:40.640Z,7.70
2022-10-05T14:13:27.142Z,7.90
2022-10-05T14:16:13.308Z,6.50
2022-10-05T14:19:05.958Z,5.00
2022-10-05T14:21:49.677Z,4.50
2022-10-05T14:24:44.874Z,6.30
2022-10-05T14:27:31.431Z,7.20
2022-10-05T14:30:03.135Z,7.00
2022-10-05T14:32:43.543Z,7.20
2022-10-05T14:35:13.012Z,6.10
2022-10-05T14:37:50.356Z,8.00
2022-10-05T14:40:23.310Z,6.80
2022-10-05T14:42:51.773Z,6.30
2022-10-05T14:45:22.230Z,8.30
2022-10-05T14:47:50.093Z,6.70
2022-10-05T14:50:21.955Z,5.60
2022-10-05T14:52:59.134Z,8.00
2022-10-05T14:55:46.058Z,7.30
2022-10-05T14:58:25.179Z,6.60
2022-10-05T15:01:14.978Z,6.30
2022-10-05T15:04:11.046Z,6.40
2022-10-05T15:06:45.192Z,4.90
2022-10-05T15:09:31.828Z,4.60
2022-10-05T15:12:02.385Z,6.90
2022-10-05T15:14:33.368Z,6.20
2022-10-05T15:17:17.413Z,6.90
2022-10-05T15:20:00.639Z,4.80
2022-10-05T15:22:31.891Z,7.20
2022-10-05T15:25:23.351Z,7.40
2022-10-05T15:28:11.883Z,6.20
2022-10-05T15:30:47.975Z,6.90
2022-10-05T15:33:40.876Z,6.60
2022-10-05T15:36:19.986Z,7.10
2022-10-05T15:39:02.297Z,8.00
2022-10-05T15:41:35.816Z,5.40
2022-10-05T15:44:23.420Z,5.20
2022-10-05T15:46:58.353Z,4.70
2022-10-05T15:50:00.737Z,5.30
2022-10-05T15:52:31.915Z,9.30
2022-10-05T15:55:23.605Z,10.50
2022-10-05T15:58:04.897Z,9.10
2022-10-05T16:00:40.215Z,7.80
2022-10-05T16:03:47.284Z,8.90
2022-10-05T16:07:08.316Z,9.90
2022-10-05T16:10:04.236Z,12.10
2022-10-05T16:12:37.972Z,10.50
2022-10-05T16:15:16.765Z,12.80
2022-10-05T16:17:52.610Z,9.30
2022-10-05T16:20:27.037Z,10.90
2022-10-05T16:23:35.450Z,10.00
2022-10-05T16:26:21.151Z,12.70
2022-10-05T16:29:13.165Z,13.60
2022-10-05T16:31:44.107Z,16.10
2022-10-05T16:34:49.575Z,12.20
2022-10-05T16:37:23.863Z,13.80
2022-10-05T16:39:58.394Z,13.80
2022-10-05T16:42:51.445Z,11.60
2022-10-05T16:45:45.133Z,11.80
2022-10-05T16:48:28.545Z,13.00
2022-10-05T16:51:08.593Z,12.00
2022-10-05T16:53:45.368Z,16.50
2022-10-05T16:56:21.125Z,11.80
2022-10-05T16:59:37.426Z,12.70
2022-10-05T17:02:42.939Z,12.90
2022-10-05T17:05:42.273Z,17.00
2022-10-05T17:08:30.526Z,14.90
2022-10-05T17:11:06.782Z,16.50
2022-10-05T17:13:55.327Z,20.50
2022-10-05T17:16:40.807Z,18.10
2022-10-05T17:19:33.766Z,16.30
2022-10-05T17:22:29.275Z,13.40
2022-10-05T17:25:08.814Z,13.00
2022-10-05T17:28:15.257Z,13.20
2022-10-05T17:31:08.092Z,11.00
2022-10-05T17:34:14.833Z,12.00
2022-10-05T17:36:53.670Z,11.40
2022-10-05T17:39:54.895Z,10.10
2022-10-05T17:42:32.577Z,12.80
2022-10-05T17:45:14.370Z,16.70
2022-10-05T17:47:55.092Z,15.00
2022-10-05T17:51:08.061Z,14.90
2022-10-05T17:53:56.407Z,17.70
2022-10-05T17:56:24.590Z,15.70
2022-10-05T17:59:01.437Z,12.20
2022-10-05T18:01:32.742Z,17.60
2022-10-05T18:04:12.959Z,12.40
2022-10-05T18:06:48.207Z,17.40
2022-10-05T18:09:22.090Z,14.40
2022-10-05T18:12:08.747Z,17.40
2022-10-05T18:15:07.602Z,21.60
2022-10-05T18:17:46.612Z,25.70
2022-10-05T18:20:26.791Z,29.30
2022-10-05T18:22:55.903Z,29.00
2022-10-05T18:25:41.975Z,27.20
2022-10-05T18:28:30.187Z,27.50
2022-10-05T18:31:21.376Z,21.90
2022-10-05T18:33:57.519Z,24.70
2022-10-05T18:36:44.722Z,24.10
2022-10-05T18:39:35.628Z,19.10
2022-10-05T18:42:41.495Z,19.30
2022-10-05T18:45:46.311Z,18.90
2022-10-05T18:48:45.518Z,18.60
2022-10-05T18:51:28.622Z,17.90
2022-10-05T18:54:14.465Z,20.80
2022-10-05T18:56:49.959Z,23.80
2022-10-05T18:59:46.593Z,21.90
2022-10-05T19:02:32.634Z,23.70
2022-10-05T19:05:07.282Z,21.40
2022-10-05T19:07:49.408Z,19.40
2022-10-05T19:10:28.647Z,20.80
2022-10-05T19:13:14.737Z,18.10
2022-10-05T19:16:18.791Z,22.50
2022-10-05T19:18:56.854Z,20.90
2022-10-05T19:21:43.257Z,17.90
2022-10-05T19:24:23.407Z,20.20
2022-10-05T19:27:19.337Z,17.10
2022-10-05T19:30:14.849Z,18.40
2022-10-05T19:32:53.770Z,16.30
2022-10-05T19:35:43.855Z,16.90
2022-10-05T19:38:15.305Z,17.20
2022-10-05T19:40:49.929Z,16.10
2022-10-05T19:43:39.198Z,20.10
2022-10-05T19:46:07.314Z,20.10
2022-10-05T19:48:44.657Z,18.60
2022-10-05T19:51:25.416Z,18.00
2022-10-05T19:53:56.262Z,16.80
2022-10-05T19:56:26.439Z,15.20
2022-10-05T19:58:57.625Z,15.80
2022-10-05T20:01:31.511Z,16.60
2022-10-05T20:04:00.152Z,15.00
2022-10-05T20:06:39.860Z,15.10
2022-10-05T20:09:22.065Z,14.80
2022-10-05T20:11:55.531Z,15.00
2022-10-05T20:14:57.250Z,13.80
2022-10-05T20:17:51.507Z,14.50
2022-10-05T20:20:30.733Z,13.30
2022-10-05T20:23:21.743Z,16.20
2022-10-05T20:26:10.192Z,14.30
2022-10-05T20:28:38.429Z,16.30
2022-10-05T20:31:08.240Z,15.40
2022-10-05T20:33:36.355Z,14.40
2022-10-05T20:36:04.520Z,15.80
2022-10-05T20:38:40.654Z,16.90
2022-10-05T20:41:09.181Z,14.80
2022-10-05T20:43:39.222Z,15.50
2022-10-05T20:46:07.759Z,15.40
2022-10-05T20:48:40.953Z,15.50
2022-10-05T20:51:08.917Z,14.80
2022-10-05T20:53:51.426Z,19.10
2022-10-05T20:56:20.008Z,14.60
2022-10-05T20:59:16.898Z,16.00
2022-10-05T21:01:48.612Z,18.50
2022-10-05T21:04:21.684Z,15.10
2022-10-05T21:06:49.974Z,16.80
2022-10-05T21:09:19.696Z,14.80
2022-10-05T21:11:54.714Z,17.90
2022-10-05T21:14:23.931Z,15.70
2022-10-05T21:16:52.804Z,17.40
2022-10-05T21:19:20.774Z,18.40
2022-10-05T21:21:49.254Z,17.00
2022-10-05T21:24:17.705Z,13.40
2022-10-05T21:26:45.699Z,13.30
2022-10-05T21:29:13.670Z,13.70
2022-10-05T21:31:42.073Z,15.30
2022-10-05T21:34:10.221Z,13.20
2022-10-05T21:36:38.287Z,15.50
2022-10-05T21:39:06.256Z,14.70
2022-10-05T21:41:34.229Z,13.80
2022-10-05T21:44:02.256Z,15.10
2022-10-05T21:46:30.367Z,15.90
2022-10-05T21:48:58.333Z,14.60
2022-10-05T21:51:27.327Z,14.40
2022-10-05T21:53:58.372Z,13.20
2022-10-05T21:56:31.473Z,18.20
2022-10-05T21:59:01.387Z,13.60
2022-10-05T22:01:29.404Z,12.90
2022-10-05T22:03:57.611Z,14.70
2022-10-05T22:06:25.583Z,15.00
2022-10-05T22:08:53.548Z,14.20
2022-10-05T22:11:21.619Z,15.50
2022-10-05T22:13:51.534Z,14.80
2022-10-05T22:16:23.822Z,13.50
2022-10-05T22:18:53.762Z,17.90
2022-10-05T22:21:22.075Z,13.10
2022-10-05T22:23:50.269Z,13.40
2022-10-05T22:26:21.885Z,13.20
2022-10-05T22:28:55.178Z,14.80
2022-10-05T22:31:23.840Z,16.00
2022-10-05T22:33:52.381Z,13.70
2022-10-05T22:36:20.658Z,14.20
2022-10-05T22:38:48.701Z,15.00
2022-10-05T22:41:18.548Z,14.40
2022-10-05T22:43:51.115Z,13.60
2022-10-05T22:46:20.030Z,13.70
2022-10-05T22:48:48.395Z,13.30
2022-10-05T22:51:16.668Z,13.30
2022-10-05T22:53:44.631Z,13.90
2022-10-05T22:56:13.845Z,15.40
2022-10-05T22:58:43.106Z,14.30
2022-10-05T23:01:14.869Z,13.40
2022-10-05T23:03:43.872Z,13.00
2022-10-05T23:06:18.500Z,14.60
2022-10-05T23:08:47.521Z,14.60
2022-10-05T23:11:19.551Z,13.80
2022-10-05T23:13:48.079Z,13.60
2022-10-05T23:16:19.069Z,14.20
2022-10-05T23:18:52.017Z,13.70
2022-10-05T23:21:21.671Z,15.20
2022-10-05T23:23:51.414Z,14.70
2022-10-05T23:26:22.208Z,13.10
2022-10-05T23:28:50.959Z,14.70
2022-10-05T23:31:21.926Z,18.00
2022-10-05T23:33:50.413Z,16.20
2022-10-05T23:36:20.632Z,15.10
2022-10-05T23:38:48.600Z,12.90
2022-10-05T23:41:17.237Z,13.30
2022-10-05T23:43:45.985Z,12.60
2022-10-05T23:46:14.474Z,14.70
2022-10-05T23:48:42.520Z,14.50
2022-10-05T23:51:12.553Z,11.60
2022-10-05T23:53:40.514Z,14.70
2022-10-05T23:56:08.499Z,12.70
2022-10-05T23:58:36.450Z,14.60
